Time;durP1;ratioP1;P1;durP2;ratioP2;P2;SDS_P1;SDS_P2;PMS_P1;PMS_P2;Temp;Humidity;BMP_temperature;BMP_pressure;BME280_temperature;BME280_humidity;BME280_pressure;Samples;Min_cycle;Max_cycle;Signal;HPM_P1;HPM_P2
2024/02/19 00:02:25;;;;;;;0.30;0.10;;;10.10;99.90;;;;;;5137237;27;20522;-62
2024/02/19 00:04:52;;;;;;;0.30;0.10;;;10.00;99.90;;;;;;5136964;27;20418;-62
2024/02/19 00:07:19;;;;;;;0.30;0.20;;;9.90;99.90;;;;;;5136977;27;20475;-62
2024/02/19 00:09:46;;;;;;;0.30;0.10;;;10.10;99.90;;;;;;5137718;27;20431;-61
2024/02/19 00:12:14;;;;;;;0.30;0.10;;;10.00;99.90;;;;;;5140261;27;20790;-62
2024/02/19 00:14:41;;;;;;;0.30;0.10;;;9.90;99.90;;;;;;5159237;27;20424;-61
2024/02/19 00:17:08;;;;;;;0.30;0.10;;;9.80;99.90;;;;;;5159415;27;20806;-62
2024/02/19 00:19:35;;;;;;;0.30;0.10;;;10.00;99.90;;;;;;5159269;27;20459;-60
2024/02/19 00:22:02;;;;;;;0.30;0.10;;;10.10;99.90;;;;;;5159396;27;20412;-61
2024/02/19 00:24:29;;;;;;;0.30;0.10;;;10.20;99.90;;;;;;5158976;27;20713;-61
2024/02/19 00:26:56;;;;;;;0.30;0.10;;;10.40;99.90;;;;;;5159176;27;20473;-62
2024/02/19 00:29:24;;;;;;;0.30;0.10;;;10.40;99.90;;;;;;5158660;27;20421;-61
2024/02/19 00:31:51;;;;;;;0.30;0.10;;;10.30;99.90;;;;;;5159029;27;20777;-61
2024/02/19 00:34:18;;;;;;;0.30;0.10;;;10.30;99.90;;;;;;5158479;27;20412;-62
2024/02/19 00:36:45;;;;;;;0.30;0.10;;;10.30;99.90;;;;;;5158794;27;20797;-62
2024/02/19 00:39:13;;;;;;;0.30;0.10;;;10.20;99.90;;;;;;5159085;27;20455;-62
2024/02/19 00:41:42;;;;;;;0.30;0.10;;;10.30;99.90;;;;;;5142167;27;20410;-62
2024/02/19 00:44:09;;;;;;;0.30;0.10;;;10.30;99.90;;;;;;5137934;27;20760;-62
2024/02/19 00:46:38;;;;;;;0.30;0.10;;;10.40;99.90;;;;;;5137966;27;20482;-61
2024/02/19 00:49:04;;;;;;;0.30;0.10;;;10.40;99.90;;;;;;5137266;27;20446;-61
2024/02/19 00:51:35;;;;;;;0.30;0.10;;;10.30;99.90;;;;;;5137144;27;20477;-62
2024/02/19 00:54:02;;;;;;;0.30;0.10;;;10.50;99.90;;;;;;5137856;27;20422;-62
2024/02/19 00:56:29;;;;;;;0.30;0.10;;;10.50;99.90;;;;;;5137869;27;20422;-62
2024/02/19 00:58:56;;;;;;;0.30;0.10;;;10.40;99.90;;;;;;5137552;27;20522;-62
2024/02/19 01:01:23;;;;;;;0.30;0.10;;;10.30;99.90;;;;;;5137965;27;20514;-62
2024/02/19 01:03:51;;;;;;;0.30;0.10;;;10.30;99.90;;;;;;5137730;27;20421;-62
2024/02/19 01:06:18;;;;;;;0.30;0.10;;;10.20;99.90;;;;;;5137959;27;20438;-62
2024/02/19 01:08:46;;;;;;;0.70;0.10;;;10.00;99.90;;;;;;5137283;27;20429;-62
2024/02/19 01:11:12;;;;;;;0.30;0.10;;;10.00;99.90;;;;;;5137349;27;20495;-62
2024/02/19 01:13:41;;;;;;;0.30;0.10;;;10.00;99.90;;;;;;5151228;27;20413;-62
2024/02/19 01:16:08;;;;;;;0.30;0.10;;;10.00;99.90;;;;;;5158692;27;20477;-61
2024/02/19 01:18:35;;;;;;;1.13;0.10;;;10.10;99.90;;;;;;5158464;27;20404;-60
2024/02/19 01:21:04;;;;;;;0.30;0.10;;;10.10;99.90;;;;;;5158682;27;20481;-62
2024/02/19 01:23:32;;;;;;;0.30;0.10;;;10.20;99.90;;;;;;5158392;27;20751;-61
2024/02/19 01:25:59;;;;;;;0.30;0.10;;;10.20;99.90;;;;;;5157973;27;20747;-63
2024/02/19 01:28:26;;;;;;;0.30;0.10;;;10.30;99.90;;;;;;5149827;27;20426;-63
2024/02/19 01:30:53;;;;;;;0.30;0.10;;;10.50;99.90;;;;;;5136488;28;20436;-62
2024/02/19 01:33:23;;;;;;;0.30;0.10;;;10.60;99.90;;;;;;5136125;28;20491;-62
2024/02/19 01:35:50;;;;;;;0.30;0.10;;;10.60;99.90;;;;;;5135177;28;20418;-62
2024/02/19 01:38:18;;;;;;;0.30;0.10;;;10.50;99.90;;;;;;5135667;28;20445;-64
2024/02/19 01:40:45;;;;;;;0.30;0.10;;;10.40;99.90;;;;;;5136197;28;20791;-62
2024/02/19 01:43:12;;;;;;;0.30;0.10;;;10.20;99.90;;;;;;5136334;28;20442;-62
2024/02/19 01:45:42;;;;;;;0.30;0.10;;;10.20;99.90;;;;;;5136700;28;20466;-62
2024/02/19 01:48:10;;;;;;;0.30;0.10;;;10.30;99.90;;;;;;5137683;28;20419;-62
2024/02/19 01:50:38;;;;;;;0.30;0.10;;;10.30;99.90;;;;;;5137357;28;20492;-62
2024/02/19 01:53:08;;;;;;;0.30;0.10;;;10.20;99.90;;;;;;5137704;28;20418;-62
2024/02/19 01:55:38;;;;;;;0.30;0.10;;;10.10;99.90;;;;;;5137229;28;20508;-62
2024/02/19 01:58:06;;;;;;;0.30;0.10;;;10.10;99.90;;;;;;5137436;28;20406;-62
2024/02/19 02:00:33;;;;;;;0.30;0.10;;;10.20;99.90;;;;;;5137139;28;20762;-62
2024/02/19 02:03:01;;;;;;;0.30;0.10;;;10.10;99.90;;;;;;5137038;28;20431;-62
2024/02/19 02:05:28;;;;;;;0.30;0.10;;;10.10;99.90;;;;;;5138068;27;20414;-62
2024/02/19 02:07:55;;;;;;;0.30;0.10;;;10.10;99.90;;;;;;5140294;27;20426;-62
2024/02/19 02:10:22;;;;;;;0.30;0.10;;;10.10;99.90;;;;;;5139711;27;20458;-62
2024/02/19 02:12:51;;;;;;;0.30;0.10;;;10.10;99.90;;;;;;5131965;27;20804;-62
2024/02/19 02:15:18;;;;;;;0.30;0.10;;;10.20;99.90;;;;;;5139755;27;20922;-62
2024/02/19 02:17:44;;;;;;;0.30;0.10;;;10.30;99.90;;;;;;5139858;27;20475;-62
2024/02/19 02:20:11;;;;;;;0.30;0.10;;;10.20;99.90;;;;;;5139615;27;20498;-62
2024/02/19 02:22:38;;;;;;;0.30;0.10;;;10.20;99.90;;;;;;5139411;27;20422;-61
2024/02/19 02:25:06;;;;;;;0.30;0.10;;;10.20;99.90;;;;;;5138727;27;20453;-60
2024/02/19 02:27:34;;;;;;;0.40;0.10;;;10.10;99.90;;;;;;5140010;27;20851;-60
2024/02/19 02:30:02;;;;;;;0.40;0.10;;;10.10;99.90;;;;;;5140912;27;20479;-60
2024/02/19 02:32:30;;;;;;;0.30;0.10;;;10.10;99.90;;;;;;5141149;27;20700;-60
2024/02/19 02:34:56;;;;;;;0.40;0.10;;;10.20;99.90;;;;;;5133185;27;20428;-60
2024/02/19 02:37:23;;;;;;;0.30;0.10;;;10.30;99.90;;;;;;5139626;27;20406;-60
2024/02/19 02:39:52;;;;;;;0.35;0.10;;;10.30;99.90;;;;;;5139029;27;20757;-60
2024/02/19 02:42:19;;;;;;;0.30;0.10;;;10.30;99.90;;;;;;5139497;27;20518;-60
2024/02/19 02:44:48;;;;;;;0.40;0.10;;;10.30;99.90;;;;;;5131791;27;20418;-60
2024/02/19 02:47:15;;;;;;;0.30;0.10;;;10.30;99.90;;;;;;5140726;27;20787;-60
2024/02/19 02:49:42;;;;;;;0.30;0.10;;;10.20;99.90;;;;;;5140200;27;20453;-61
2024/02/19 02:52:09;;;;;;;0.70;0.10;;;10.10;99.90;;;;;;5140013;27;20521;-61
2024/02/19 02:54:37;;;;;;;0.30;0.10;;;10.00;99.90;;;;;;5140107;27;20410;-64
2024/02/19 02:57:04;;;;;;;0.30;0.10;;;10.00;99.90;;;;;;5140594;27;20422;-60
2024/02/19 02:59:31;;;;;;;0.30;0.10;;;9.90;99.90;;;;;;5139860;27;20908;-60
2024/02/19 03:01:59;;;;;;;0.30;0.10;;;9.90;99.90;;;;;;5140208;27;20749;-60
2024/02/19 03:04:26;;;;;;;0.40;0.20;;;10.00;99.90;;;;;;5140035;27;20450;-60
2024/02/19 03:06:53;;;;;;;0.40;0.10;;;10.00;99.90;;;;;;5139753;27;20478;-60
2024/02/19 03:09:19;;;;;;;0.30;0.10;;;10.00;99.90;;;;;;5139521;27;20458;-61
2024/02/19 03:11:46;;;;;;;0.40;0.20;;;9.90;99.90;;;;;;5139173;27;20430;-61
2024/02/19 03:14:13;;;;;;;0.60;0.10;;;9.90;99.90;;;;;;5140118;27;20422;-61
2024/02/19 03:16:40;;;;;;;0.40;0.20;;;9.90;99.90;;;;;;5140522;27;20437;-59
2024/02/19 03:19:10;;;;;;;0.50;0.20;;;9.90;99.90;;;;;;5139956;27;20760;-59
2024/02/19 03:21:37;;;;;;;0.40;0.20;;;9.90;99.90;;;;;;5139855;27;20410;-59
2024/02/19 03:24:04;;;;;;;0.30;0.20;;;9.90;99.90;;;;;;5139852;27;20422;-60
2024/02/19 03:26:33;;;;;;;0.40;0.20;;;9.90;99.90;;;;;;5131233;27;20490;-60
2024/02/19 03:29:00;;;;;;;0.70;0.20;;;9.90;99.90;;;;;;5139584;27;20433;-61
2024/02/19 03:31:28;;;;;;;0.50;0.20;;;10.10;99.90;;;;;;5139604;27;20748;-61
2024/02/19 03:33:55;;;;;;;0.50;0.20;;;10.10;99.90;;;;;;5139473;27;20864;-61
2024/02/19 03:36:23;;;;;;;0.70;0.20;;;10.10;99.90;;;;;;5139354;27;20475;-61
2024/02/19 03:38:50;;;;;;;0.30;0.20;;;10.10;99.90;;;;;;5139287;27;20442;-61
2024/02/19 03:41:17;;;;;;;0.50;0.20;;;10.10;99.90;;;;;;5139659;27;20442;-61
2024/02/19 03:43:44;;;;;;;0.45;0.20;;;10.20;99.90;;;;;;5133873;27;20846;-61
2024/02/19 03:46:11;;;;;;;0.50;0.20;;;10.40;99.90;;;;;;5136556;27;20426;-62
2024/02/19 03:48:38;;;;;;;0.50;0.20;;;10.30;99.90;;;;;;5139560;27;20446;-62
2024/02/19 03:51:05;;;;;;;0.80;0.20;;;10.50;99.90;;;;;;5139110;27;20526;-62
2024/02/19 03:53:33;;;;;;;0.50;0.20;;;10.50;99.90;;;;;;5139285;27;20776;-62
2024/02/19 03:56:01;;;;;;;0.50;0.20;;;10.60;99.90;;;;;;5139025;27;20797;-62
2024/02/19 03:58:28;;;;;;;1.20;0.20;;;10.50;99.90;;;;;;5138795;27;20473;-63
2024/02/19 04:00:55;;;;;;;0.60;0.20;;;10.50;99.90;;;;;;5139014;27;20430;-62
2024/02/19 04:03:22;;;;;;;0.60;0.30;;;10.60;99.90;;;;;;5139160;27;20454;-62
2024/02/19 04:05:49;;;;;;;0.50;0.20;;;10.40;99.90;;;;;;5139165;27;20446;-62
2024/02/19 04:08:16;;;;;;;0.40;0.20;;;10.50;99.90;;;;;;5138705;27;20482;-62
2024/02/19 04:10:44;;;;;;;0.50;0.20;;;10.50;99.90;;;;;;5135237;27;20730;-62
2024/02/19 04:13:11;;;;;;;0.70;0.20;;;10.50;99.90;;;;;;5147717;27;20477;-62
2024/02/19 04:15:38;;;;;;;0.30;0.20;;;10.60;99.90;;;;;;5159307;27;20504;-62
2024/02/19 04:18:05;;;;;;;0.43;0.20;;;10.70;99.90;;;;;;5159021;27;20484;-62
2024/02/19 04:20:32;;;;;;;0.60;0.20;;;10.60;99.90;;;;;;5159333;27;20992;-62
2024/02/19 04:22:59;;;;;;;0.50;0.20;;;10.50;99.90;;;;;;5159430;27;20417;-62
2024/02/19 04:25:26;;;;;;;0.60;0.20;;;10.70;99.90;;;;;;5159388;27;20413;-62
2024/02/19 04:27:55;;;;;;;0.50;0.30;;;10.80;99.90;;;;;;5159039;27;20436;-62
2024/02/19 04:30:22;;;;;;;0.50;0.20;;;10.80;99.90;;;;;;5159075;27;20493;-62
2024/02/19 04:32:49;;;;;;;0.40;0.20;;;10.70;99.90;;;;;;5159160;27;20485;-62
2024/02/19 04:35:16;;;;;;;0.60;0.20;;;10.90;99.90;;;;;;5158976;27;20713;-62
2024/02/19 04:37:42;;;;;;;0.50;0.20;;;10.90;99.90;;;;;;5159200;27;20501;-62
2024/02/19 04:40:12;;;;;;;0.50;0.20;;;10.70;99.90;;;;;;5154332;27;20449;-62
2024/02/19 04:42:39;;;;;;;0.50;0.20;;;10.60;99.90;;;;;;5137891;27;20411;-62
2024/02/19 04:45:08;;;;;;;0.40;0.20;;;10.60;99.90;;;;;;5137245;27;20414;-62
2024/02/19 04:47:35;;;;;;;0.50;0.20;;;10.40;99.90;;;;;;5136564;27;20483;-63
2024/02/19 04:50:02;;;;;;;0.70;0.20;;;10.30;99.90;;;;;;5136936;27;20454;-62
2024/02/19 04:52:27;;;;;;;0.50;0.30;;;10.40;99.90;;;;;;5136698;27;20867;-63
2024/02/19 04:54:55;;;;;;;0.60;0.30;;;10.40;99.90;;;;;;5136358;27;20475;-62
2024/02/19 04:57:22;;;;;;;0.80;0.30;;;10.40;99.90;;;;;;5137057;27;20426;-62
2024/02/19 04:59:49;;;;;;;1.20;0.40;;;10.30;99.90;;;;;;5137810;27;20880;-62
2024/02/19 05:02:17;;;;;;;0.50;0.30;;;10.30;99.90;;;;;;5137849;27;20522;-63
2024/02/19 05:04:44;;;;;;;0.82;0.30;;;10.20;99.90;;;;;;5137394;27;20422;-62
2024/02/19 05:07:11;;;;;;;0.60;0.30;;;10.40;99.90;;;;;;5137116;27;20414;-62
2024/02/19 05:09:38;;;;;;;0.60;0.40;;;10.30;99.90;;;;;;5137095;27;20858;-68
2024/02/19 05:12:05;;;;;;;0.70;0.30;;;10.30;99.90;;;;;;5128891;27;20500;-65
2024/02/19 05:14:32;;;;;;;0.60;0.30;;;10.30;99.90;;;;;;5136206;27;20419;-64
2024/02/19 05:17:00;;;;;;;1.00;0.50;;;10.40;99.90;;;;;;5136206;27;20423;-64
2024/02/19 05:19:28;;;;;;;1.15;0.30;;;10.30;99.90;;;;;;5135986;27;20429;-64
2024/02/19 05:21:55;;;;;;;0.80;0.40;;;10.30;99.90;;;;;;5136550;27;20427;-65
2024/02/19 05:24:22;;;;;;;1.10;0.40;;;10.30;99.90;;;;;;5136425;28;20419;-65
2024/02/19 05:26:49;;;;;;;1.15;0.43;;;10.40;99.90;;;;;;5137011;28;20796;-64
2024/02/19 05:29:16;;;;;;;0.60;0.40;;;10.20;99.90;;;;;;5137396;28;20676;-64
2024/02/19 05:31:43;;;;;;;1.67;0.47;;;10.10;99.90;;;;;;5136264;28;20478;-64
2024/02/19 05:34:10;;;;;;;0.70;0.40;;;10.20;99.90;;;;;;5135818;28;20414;-64
2024/02/19 05:36:38;;;;;;;0.90;0.50;;;10.20;99.90;;;;;;5136670;28;20410;-65
2024/02/19 05:39:10;;;;;;;2.22;0.50;;;10.30;99.90;;;;;;5135813;27;20454;-65
2024/02/19 05:41:37;;;;;;;0.90;0.40;;;10.30;99.90;;;;;;5140164;27;20423;-62
2024/02/19 05:44:04;;;;;;;0.82;0.40;;;10.30;99.90;;;;;;5140992;27;20428;-65
2024/02/19 05:46:32;;;;;;;1.40;0.50;;;10.30;99.90;;;;;;5141692;27;20422;-63
2024/02/19 05:48:59;;;;;;;1.50;0.40;;;10.40;99.90;;;;;;5141279;27;20420;-63
2024/02/19 05:51:26;;;;;;;1.35;0.45;;;10.40;99.90;;;;;;5141006;27;20796;-63
2024/02/19 05:53:55;;;;;;;1.70;0.50;;;10.30;99.90;;;;;;5138792;27;20481;-62
2024/02/19 05:56:22;;;;;;;1.10;0.40;;;10.30;99.90;;;;;;5140777;27;20422;-63
2024/02/19 05:58:49;;;;;;;1.00;0.40;;;10.40;99.90;;;;;;5138027;27;20490;-62
2024/02/19 06:01:16;;;;;;;0.82;0.40;;;10.50;99.90;;;;;;5130714;27;20423;-63
2024/02/19 06:03:44;;;;;;;1.10;0.40;;;10.40;99.90;;;;;;5138564;27;20417;-63
2024/02/19 06:06:11;;;;;;;0.80;0.40;;;10.30;99.90;;;;;;5133738;27;20430;-63
2024/02/19 06:08:38;;;;;;;0.80;0.40;;;10.40;99.90;;;;;;5139921;27;20475;-63
2024/02/19 06:11:06;;;;;;;1.10;0.47;;;10.30;99.90;;;;;;5136068;27;20422;-63
2024/02/19 06:13:33;;;;;;;1.20;0.50;;;10.20;99.90;;;;;;5138689;27;20487;-63
2024/02/19 06:16:01;;;;;;;0.80;0.40;;;10.20;99.90;;;;;;5138276;27;20415;-63
2024/02/19 06:18:28;;;;;;;1.95;0.40;;;10.00;99.90;;;;;;5127236;27;20627;-64
2024/02/19 06:20:55;;;;;;;0.63;0.40;;;10.20;99.90;;;;;;5133165;27;20459;-64
2024/02/19 06:23:22;;;;;;;1.80;0.50;;;10.10;99.90;;;;;;5138970;27;20410;-64
2024/02/19 06:25:49;;;;;;;0.70;0.40;;;10.00;99.90;;;;;;5138594;27;20422;-63
2024/02/19 06:28:18;;;;;;;1.02;0.40;;;10.10;99.90;;;;;;5137036;27;20446;-63
2024/02/19 06:30:47;;;;;;;1.40;0.50;;;10.10;99.90;;;;;;5139623;27;20406;-64
2024/02/19 06:33:15;;;;;;;1.60;0.50;;;10.20;99.90;;;;;;5139906;27;20831;-63
2024/02/19 06:35:42;;;;;;;0.90;0.50;;;10.30;99.90;;;;;;5139007;27;20458;-64
2024/02/19 06:38:09;;;;;;;1.17;0.40;;;10.10;99.90;;;;;;5134378;27;20424;-63
2024/02/19 06:40:37;;;;;;;1.17;0.40;;;10.20;99.90;;;;;;5135548;27;20420;-63
2024/02/19 06:43:04;;;;;;;0.82;0.50;;;10.20;99.90;;;;;;5134666;27;20415;-63
2024/02/19 06:45:33;;;;;;;1.27;0.50;;;10.30;99.90;;;;;;5129713;27;20421;-64
2024/02/19 06:48:00;;;;;;;0.90;0.40;;;10.50;99.90;;;;;;5137842;27;20445;-63
2024/02/19 06:50:27;;;;;;;1.10;0.40;;;10.70;99.90;;;;;;5139057;27;20430;-64
2024/02/19 06:52:54;;;;;;;2.10;0.50;;;10.50;99.90;;;;;;5140032;27;20516;-64
2024/02/19 06:55:21;;;;;;;1.35;0.40;;;10.50;99.90;;;;;;5136833;27;20454;-64
2024/02/19 06:57:48;;;;;;;0.93;0.50;;;10.20;99.90;;;;;;5139512;27;20414;-64
2024/02/19 07:00:16;;;;;;;1.40;0.40;;;10.20;99.90;;;;;;5138491;27;20513;-64
2024/02/19 07:02:44;;;;;;;1.60;0.40;;;10.20;99.90;;;;;;5132009;27;20970;-67
2024/02/19 07:05:11;;;;;;;1.30;0.40;;;10.40;99.90;;;;;;5138089;27;20526;-66
2024/02/19 07:07:38;;;;;;;1.60;0.40;;;10.30;99.90;;;;;;5138504;27;20461;-65
2024/02/19 07:10:06;;;;;;;1.00;0.40;;;10.10;99.90;;;;;;5135745;27;20802;-65
2024/02/19 07:12:33;;;;;;;0.60;0.30;;;10.20;99.90;;;;;;5134995;27;20422;-65
2024/02/19 07:15:00;;;;;;;1.10;0.40;;;10.10;99.90;;;;;;5137422;27;20491;-65
2024/02/19 07:17:27;;;;;;;2.97;0.40;;;10.10;99.90;;;;;;5138091;27;20462;-66
2024/02/19 07:19:56;;;;;;;0.70;0.40;;;10.10;99.90;;;;;;5129037;27;20468;-66
2024/02/19 07:22:23;;;;;;;1.77;0.40;;;10.10;99.90;;;;;;5132405;27;20462;-66
2024/02/19 07:24:50;;;;;;;1.27;0.33;;;10.40;99.90;;;;;;5137255;27;20410;-64
2024/02/19 07:27:17;;;;;;;0.60;0.30;;;10.70;99.90;;;;;;5123250;27;20756;-63
2024/02/19 07:29:44;;;;;;;1.10;0.40;;;10.80;99.90;;;;;;5129738;27;20462;-63
2024/02/19 07:32:10;;;;;;;0.80;0.40;;;10.70;99.90;;;;;;5133524;27;20462;-63
2024/02/19 07:34:38;;;;;;;2.03;0.38;;;10.50;99.90;;;;;;5148883;27;20463;-63
2024/02/19 07:37:06;;;;;;;1.20;0.30;;;10.30;99.90;;;;;;5138956;27;20420;-62
2024/02/19 07:39:33;;;;;;;0.50;0.30;;;10.40;99.90;;;;;;5138539;27;20430;-62
2024/02/19 07:42:00;;;;;;;0.73;0.30;;;10.30;99.90;;;;;;5137043;27;20823;-62
2024/02/19 07:44:28;;;;;;;1.30;0.30;;;10.30;99.90;;;;;;5136313;27;20444;-62
2024/02/19 07:46:55;;;;;;;0.50;0.30;;;10.40;99.90;;;;;;5133641;27;20415;-62
2024/02/19 07:49:22;;;;;;;1.40;0.40;;;10.30;99.90;;;;;;5134203;27;20418;-63
2024/02/19 07:51:49;;;;;;;1.00;0.30;;;10.40;99.90;;;;;;5131323;27;20447;-63
2024/02/19 07:54:17;;;;;;;1.20;0.30;;;10.50;99.90;;;;;;5136609;27;20540;-60
2024/02/19 07:56:44;;;;;;;0.70;0.30;;;10.30;99.90;;;;;;5134986;27;20443;-63
2024/02/19 07:59:12;;;;;;;0.60;0.20;;;10.20;99.90;;;;;;5138426;27;20556;-63
2024/02/19 08:01:39;;;;;;;0.60;0.30;;;10.20;99.90;;;;;;5107374;28;20486;-62
2024/02/19 08:04:06;;;;;;;1.20;0.20;;;10.30;99.90;;;;;;5120615;27;20527;-65
2024/02/19 08:06:33;;;;;;;0.70;0.20;;;10.50;99.90;;;;;;5136414;27;20835;-65
2024/02/19 08:09:00;;;;;;;0.80;0.23;;;10.30;99.90;;;;;;5136259;27;20442;-66
2024/02/19 08:11:28;;;;;;;0.60;0.25;;;10.60;99.90;;;;;;5136259;27;20543;-66
2024/02/19 08:13:55;;;;;;;0.90;0.20;;;10.60;99.90;;;;;;5126419;27;20830;-65
2024/02/19 08:16:22;;;;;;;1.00;0.20;;;10.60;99.90;;;;;;5125880;27;20442;-65
2024/02/19 08:18:49;;;;;;;0.40;0.20;;;10.60;99.90;;;;;;5123156;27;20432;-67
2024/02/19 08:21:16;;;;;;;0.80;0.20;;;10.40;99.90;;;;;;5134859;27;20770;-66
2024/02/19 08:23:43;;;;;;;0.52;0.20;;;10.30;99.90;;;;;;5129877;27;20438;-66
2024/02/19 08:26:10;;;;;;;1.10;0.22;;;10.60;99.90;;;;;;5132826;27;20535;-67
2024/02/19 08:28:39;;;;;;;0.60;0.20;;;10.50;99.90;;;;;;5132034;27;20806;-65
2024/02/19 08:31:06;;;;;;;0.50;0.20;;;10.40;99.90;;;;;;5130086;27;20625;-66
2024/02/19 08:33:33;;;;;;;0.70;0.20;;;10.50;99.90;;;;;;5128312;27;20459;-67
2024/02/19 08:36:00;;;;;;;0.40;0.20;;;10.60;99.90;;;;;;5138051;27;20758;-67
2024/02/19 08:38:28;;;;;;;1.10;0.30;;;10.60;99.90;;;;;;5137284;27;20573;-65
2024/02/19 08:40:55;;;;;;;0.85;0.20;;;10.50;99.90;;;;;;5125526;27;20864;-66
2024/02/19 08:43:21;;;;;;;1.00;0.30;;;10.60;99.90;;;;;;5136207;27;20454;-65
2024/02/19 08:45:49;;;;;;;0.40;0.20;;;10.70;99.90;;;;;;5135458;27;20457;-68
2024/02/19 08:48:17;;;;;;;0.70;0.20;;;10.60;99.90;;;;;;5128824;27;20450;-68
2024/02/19 08:50:45;;;;;;;0.60;0.30;;;10.70;99.90;;;;;;5136146;27;20422;-68
2024/02/19 08:53:12;;;;;;;0.50;0.20;;;10.90;99.90;;;;;;5133683;27;20426;-68
2024/02/19 08:55:39;;;;;;;0.60;0.20;;;10.80;99.90;;;;;;5135383;27;20434;-68
2024/02/19 08:58:06;;;;;;;0.70;0.15;;;10.80;99.90;;;;;;5116235;27;20470;-65
2024/02/19 09:00:33;;;;;;;0.85;0.25;;;10.60;99.90;;;;;;5134207;27;20483;-66
2024/02/19 09:03:04;;;;;;;0.50;0.30;;;10.70;99.90;;;;;;5130003;27;20431;-66
2024/02/19 09:05:31;;;;;;;1.60;0.20;;;10.90;99.90;;;;;;5136070;27;20483;-65
2024/02/19 09:07:59;;;;;;;0.40;0.20;;;10.90;99.90;;;;;;5131660;27;20419;-66
2024/02/19 09:10:26;;;;;;;0.35;0.20;;;10.80;99.90;;;;;;5132589;27;20415;-60
2024/02/19 09:12:53;;;;;;;1.60;0.60;;;10.70;99.90;;;;;;5134570;27;20982;-60
2024/02/19 09:15:20;;;;;;;1.10;0.20;;;10.60;99.90;;;;;;5131599;27;20533;-60
2024/02/19 09:17:48;;;;;;;0.40;0.20;;;10.70;99.90;;;;;;5132541;27;20434;-59
2024/02/19 09:20:17;;;;;;;0.70;0.20;;;10.70;99.90;;;;;;5129914;27;20430;-58
2024/02/19 09:22:44;;;;;;;0.60;0.30;;;10.80;99.90;;;;;;5135295;27;20509;-58
2024/02/19 09:25:12;;;;;;;0.60;0.20;;;10.90;99.90;;;;;;5134856;27;20442;-58
2024/02/19 09:27:39;;;;;;;1.00;0.30;;;10.80;99.90;;;;;;5127230;28;20473;-58
2024/02/19 09:30:07;;;;;;;0.40;0.20;;;10.80;99.90;;;;;;5116026;28;20436;-58
2024/02/19 09:32:34;;;;;;;1.30;0.20;;;10.90;99.90;;;;;;5135653;28;20513;-59
2024/02/19 09:35:02;;;;;;;0.90;0.20;;;11.10;99.90;;;;;;5132933;27;20546;-60
2024/02/19 09:37:30;;;;;;;0.40;0.20;;;11.10;99.90;;;;;;5134685;27;20525;-60
2024/02/19 09:39:58;;;;;;;0.45;0.20;;;11.20;99.90;;;;;;5133852;27;20505;-62
2024/02/19 09:42:27;;;;;;;1.80;0.90;;;11.20;99.90;;;;;;5133929;28;20520;-61
2024/02/19 09:44:54;;;;;;;10.90;4.30;;;11.30;99.90;;;;;;5114218;27;20478;-61
2024/02/19 09:47:22;;;;;;;1.10;0.20;;;11.60;99.90;;;;;;5118772;27;20474;-61
2024/02/19 09:49:49;;;;;;;0.57;0.20;;;11.90;99.90;;;;;;5127527;27;20558;-62
2024/02/19 09:52:22;;;;;;;2.00;0.20;;;12.00;99.90;;;;;;5135458;28;20491;-61
2024/02/19 09:54:51;;;;;;;0.70;0.20;;;11.80;99.90;;;;;;5126225;27;20512;-62
2024/02/19 09:57:19;;;;;;;0.70;0.20;;;11.70;99.90;;;;;;5129487;27;20795;-62
2024/02/19 09:59:47;;;;;;;0.80;0.20;;;11.40;99.90;;;;;;5133957;28;20434;-62
2024/02/19 10:02:18;;;;;;;0.50;0.20;;;11.50;99.90;;;;;;5126873;28;20434;-62
2024/02/19 10:04:45;;;;;;;0.40;0.20;;;11.60;99.90;;;;;;5128077;27;20440;-62
2024/02/19 10:07:17;;;;;;;1.80;0.20;;;11.60;99.90;;;;;;5133064;28;20438;-61
2024/02/19 10:09:44;;;;;;;1.10;0.20;;;11.70;99.90;;;;;;5127377;28;20544;-62
2024/02/19 10:12:12;;;;;;;0.80;0.20;;;11.90;99.90;;;;;;5130152;28;20434;-62
2024/02/19 10:14:39;;;;;;;0.52;0.20;;;11.80;99.90;;;;;;5122952;28;20518;-62
2024/02/19 10:17:06;;;;;;;1.27;0.25;;;11.40;99.90;;;;;;5122533;28;20526;-63
2024/02/19 10:19:33;;;;;;;0.60;0.30;;;11.50;99.90;;;;;;5129143;27;20522;-61
2024/02/19 10:22:00;;;;;;;0.52;0.25;;;11.40;99.90;;;;;;5114035;28;20499;-62
2024/02/19 10:24:27;;;;;;;0.60;0.30;;;11.20;99.90;;;;;;5132647;28;20794;-67
2024/02/19 10:26:54;;;;;;;0.40;0.20;;;11.20;99.90;;;;;;5135487;27;20434;-67
2024/02/19 10:29:22;;;;;;;0.90;0.20;;;11.30;99.90;;;;;;5131570;28;20449;-67
2024/02/19 10:31:49;;;;;;;0.60;0.20;;;11.30;99.90;;;;;;5123969;28;20476;-67
2024/02/19 10:34:16;;;;;;;1.50;0.20;;;11.50;99.90;;;;;;5122779;28;20520;-67
2024/02/19 10:36:45;;;;;;;0.75;0.20;;;11.30;99.90;;;;;;5135635;28;20434;-69
2024/02/19 10:39:12;;;;;;;1.40;0.20;;;11.30;99.90;;;;;;5134045;27;20494;-67
2024/02/19 10:41:40;;;;;;;2.10;0.20;;;11.60;99.90;;;;;;5123485;28;20462;-68
2024/02/19 10:44:07;;;;;;;0.60;0.20;;;11.50;99.90;;;;;;5136016;28;20491;-67
2024/02/19 10:46:36;;;;;;;0.40;0.20;;;11.50;99.90;;;;;;5127112;27;20759;-66
2024/02/19 10:49:04;;;;;;;0.50;0.20;;;11.50;99.90;;;;;;5128157;28;20466;-66
2024/02/19 10:51:31;;;;;;;0.80;0.20;;;11.50;99.90;;;;;;5127282;27;20966;-66
2024/02/19 10:53:59;;;;;;;0.40;0.20;;;11.50;99.90;;;;;;5119641;28;20441;-66
2024/02/19 10:56:34;;;;;;;2.40;0.20;;;11.50;99.90;;;;;;5127821;27;20543;-66
2024/02/19 10:59:01;;;;;;;0.50;0.20;;;11.70;99.90;;;;;;5130259;28;20445;-66
2024/02/19 11:01:40;;;;;;;0.60;0.20;;;11.70;99.90;;;;;;5130580;28;20434;-66
2024/02/19 11:04:19;;;;;;;0.50;0.20;;;11.80;99.90;;;;;;5129616;27;20872;-66
2024/02/19 11:06:47;;;;;;;0.70;0.20;;;11.90;99.90;;;;;;5123869;27;20746;-66
2024/02/19 11:09:15;;;;;;;0.40;0.10;;;12.10;99.90;;;;;;5060331;27;1994800;-67
2024/02/19 11:11:47;;;;;;;0.40;0.20;;;12.20;99.90;;;;;;5128028;27;20485;-64
2024/02/19 11:14:17;;;;;;;1.40;0.20;;;12.20;99.90;;;;;;5135243;27;20491;-65
2024/02/19 11:16:47;;;;;;;0.40;0.20;;;11.80;99.90;;;;;;5144306;27;20434;-64
2024/02/19 11:19:14;;;;;;;0.63;0.20;;;11.80;99.90;;;;;;5132558;27;20719;-65
2024/02/19 11:21:41;;;;;;;1.50;0.20;;;11.90;99.90;;;;;;5140480;27;20758;-64
2024/02/19 11:24:08;;;;;;;0.50;0.20;;;11.60;99.90;;;;;;5134454;27;20519;-64
2024/02/19 11:26:40;;;;;;;1.00;0.30;;;11.60;99.90;;;;;;5115661;27;20467;-62
2024/02/19 11:29:07;;;;;;;2.40;0.30;;;11.60;99.90;;;;;;5134424;27;20430;-62
2024/02/19 11:31:35;;;;;;;1.10;0.20;;;11.80;99.90;;;;;;5143760;27;20470;-63
2024/02/19 11:34:03;;;;;;;0.77;0.20;;;12.00;99.90;;;;;;5128286;27;20782;-63
2024/02/19 11:36:30;;;;;;;1.00;0.20;;;12.20;99.90;;;;;;5136836;27;20462;-62
2024/02/19 11:38:58;;;;;;;1.10;0.20;;;11.90;99.90;;;;;;5135703;27;20516;-63
2024/02/19 11:41:25;;;;;;;0.90;0.20;;;11.60;99.90;;;;;;5136519;27;20434;-64
2024/02/19 11:43:54;;;;;;;2.72;0.20;;;11.50;99.90;;;;;;5134899;27;20750;-62
2024/02/19 11:46:23;;;;;;;0.50;0.20;;;11.60;99.90;;;;;;5147175;27;20584;-64
2024/02/19 11:48:51;;;;;;;1.38;0.20;;;11.70;99.90;;;;;;5120548;27;20964;-61
2024/02/19 11:51:20;;;;;;;0.90;0.30;;;11.90;99.90;;;;;;5123310;27;20434;-61
2024/02/19 11:53:48;;;;;;;0.95;0.20;;;12.20;99.90;;;;;;5135756;27;20521;-63
2024/02/19 11:56:18;;;;;;;0.70;0.20;;;12.10;99.90;;;;;;5129330;27;20853;-62
2024/02/19 11:58:45;;;;;;;0.40;0.10;;;12.10;99.90;;;;;;5135265;27;21763;-62
2024/02/19 12:01:12;;;;;;;0.60;0.20;;;12.10;99.90;;;;;;5135666;27;20458;-62
2024/02/19 12:03:42;;;;;;;0.90;0.20;;;12.30;99.90;;;;;;5131966;27;20426;-61
2024/02/19 12:06:10;;;;;;;1.30;0.20;;;11.80;99.90;;;;;;5135257;27;20490;-62
2024/02/19 12:08:39;;;;;;;0.67;0.13;;;11.80;99.90;;;;;;5136524;27;20878;-62
2024/02/19 12:11:08;;;;;;;0.68;0.20;;;12.30;99.90;;;;;;5134495;27;20472;-63
2024/02/19 12:13:36;;;;;;;0.50;0.20;;;12.20;99.90;;;;;;5123039;27;20875;-62
2024/02/19 12:16:03;;;;;;;0.60;0.20;;;12.30;99.90;;;;;;5133429;27;20513;-61
2024/02/19 12:18:31;;;;;;;45.35;26.17;;;12.30;99.90;;;;;;5131354;27;20437;-60
2024/02/19 12:21:00;;;;;;;2.47;1.90;;;12.30;99.90;;;;;;5131001;27;22162;-60
2024/02/19 12:23:27;;;;;;;0.70;0.20;;;12.20;99.90;;;;;;5124257;27;20828;-60
2024/02/19 12:25:55;;;;;;;0.50;0.20;;;12.00;99.90;;;;;;5122951;27;20434;-60
2024/02/19 12:28:22;;;;;;;0.43;0.20;;;11.90;99.90;;;;;;5114933;27;20524;-60
2024/02/19 12:30:49;;;;;;;0.40;0.20;;;11.90;99.90;;;;;;5120260;27;20782;-61
2024/02/19 12:33:18;;;;;;;0.55;0.20;;;12.10;99.90;;;;;;5135400;27;20465;-60
2024/02/19 12:35:46;;;;;;;0.80;0.20;;;12.00;99.90;;;;;;5132827;27;20498;-60
2024/02/19 12:38:15;;;;;;;0.60;0.30;;;11.90;99.90;;;;;;5131788;27;20653;-61
2024/02/19 12:40:42;;;;;;;1.30;0.30;;;11.80;99.90;;;;;;5134888;27;20803;-60
2024/02/19 12:43:11;;;;;;;1.70;0.20;;;11.70;99.90;;;;;;5134313;27;20778;-60
2024/02/19 12:45:38;;;;;;;0.60;0.20;;;11.70;99.90;;;;;;5128367;27;20716;-60
2024/02/19 12:48:06;;;;;;;0.97;0.20;;;11.90;99.90;;;;;;5130093;27;20506;-60
2024/02/19 12:50:33;;;;;;;2.40;0.20;;;12.10;99.90;;;;;;5135925;27;20505;-60